Time;durP1;ratioP1;P1;durP2;ratioP2;P2;SDS_P1;SDS_P2;PMS_P1;PMS_P2;Temp;Humidity;BMP_temperature;BMP_pressure;BME280_temperature;BME280_humidity;BME280_pressure;Samples;Min_cycle;Max_cycle;Signal;HPM_P1;HPM_P2
2024/04/12 00:00:47;;;;;;;;;;;;;;;-144.99;100.00;52395.09;5408328;26;19979;-67
2024/04/12 00:03:13;;;;;;;;;;;;;;;-144.99;100.00;52386.94;5405329;26;20479;-66
2024/04/12 00:05:47;;;;;;;;;;;;;;;-144.99;100.00;52431.78;5409616;26;19935;-67
2024/04/12 00:08:13;;;;;;;;;;;;;;;-144.99;100.00;52427.72;5403187;26;19980;-69
2024/04/12 00:10:45;;;;;;;;;;;;;;;-144.99;100.00;52391.03;5405267;26;19933;-68
2024/04/12 00:13:11;;;;;;;;;;;;;;;-144.99;100.00;52407.31;5405651;26;20047;-68
2024/04/12 00:15:42;;;;;;;;;;;;;;;-144.99;100.00;52395.09;5397964;26;19990;-68
2024/04/12 00:18:07;;;;;;;;;;;;;;;-144.99;100.00;52409.38;5395610;26;19936;-66
2024/04/12 00:20:36;;;;;;;;;;;;;;;-144.99;100.00;52403.25;5407761;26;19929;-67
2024/04/12 00:23:02;;;;;;;;;;;;;;;-144.99;100.00;52382.88;5407287;26;19929;-68
2024/04/12 00:25:32;;;;;;;;;;;;;;;-144.99;100.00;52403.25;5408306;26;19982;-68
2024/04/12 00:28:01;;;;;;;;;;;;;;;-144.99;100.00;52417.53;5400690;26;19929;-68
2024/04/12 00:33:12;;;;;;;;;;;;;;;-144.99;100.00;52399.19;5400222;26;19929;-69
2024/04/12 00:35:38;;;;;;;;;;;;;;;-144.99;100.00;52427.72;5401868;26;20394;-69
2024/04/12 00:38:09;;;;;;;;;;;;;;;-144.99;100.00;52415.47;5403396;26;19987;-67
2024/04/12 00:40:36;;;;;;;;;;;;;;;-144.99;100.00;52395.09;5407648;26;19961;-67
2024/04/12 00:43:12;;;;;;;;;;;;;;;-144.99;100.00;52419.56;5396021;26;19936;-67
2024/04/12 00:45:42;;;;;;;;;;;;;;;-144.99;100.00;52427.72;5403550;26;20044;-69
2024/04/12 00:48:12;;;;;;;;;;;;;;;-144.99;100.00;52384.91;5393811;26;19941;-70
2024/04/12 00:50:40;;;;;;;;;;;;;;;-144.99;100.00;52382.88;5404515;26;19993;-65
2024/04/12 00:53:09;;;;;;;;;;;;;;;-144.99;100.00;52378.78;5409434;26;19959;-66
2024/04/12 00:55:38;;;;;;;;;;;;;;;-144.99;100.00;52435.88;5407818;26;20325;-66
2024/04/12 00:58:09;;;;;;;;;;;;;;;-144.99;100.00;52431.78;5401864;26;20078;-67
2024/04/12 01:00:46;;;;;;;;;;;;;;;-144.99;100.00;52415.47;5407573;26;19961;-68
2024/04/12 01:03:15;;;;;;;;;;;;;;;-144.99;100.00;52427.72;5404289;26;19959;-64
2024/04/12 01:05:41;;;;;;;;;;;;;;;-144.99;100.00;52391.03;5398936;26;20009;-64
2024/04/12 01:08:10;;;;;;;;;;;;;;;-144.99;100.00;52366.56;5404674;26;19995;-64
2024/04/12 01:10:36;;;;;;;;;;;;;;;-144.99;100.00;52415.47;5406347;26;19979;-65
2024/04/12 01:13:05;;;;;;;;;;;;;;;-144.99;100.00;52429.75;5393825;26;19963;-66
2024/04/12 01:15:36;;;;;;;;;;;;;;;-144.99;100.00;52388.97;5408580;26;20015;-66
2024/04/12 01:18:11;;;;;;;;;;;;;;;-144.99;100.00;52419.56;5401428;26;19978;-67
2024/04/12 01:20:39;;;;;;;;;;;;;;;-144.99;100.00;52423.63;5402157;26;19945;-67
2024/04/12 01:23:10;;;;;;;;;;;;;;;-144.99;100.00;52444.03;5401179;26;19968;-67
2024/04/12 01:25:38;;;;;;;;;;;;;;;-144.99;100.00;52411.41;5377464;26;20490;-67
2024/04/12 01:28:09;;;;;;;;;;;;;;;-144.99;100.00;52423.63;5403329;26;20271;-67
2024/04/12 01:30:39;;;;;;;;;;;;;;;-144.99;100.00;52425.66;5401296;26;19979;-66
2024/04/12 01:33:09;;;;;;;;;;;;;;;-144.99;100.00;52415.47;5401957;26;20040;-66
2024/04/12 01:35:34;;;;;;;;;;;;;;;-144.99;100.00;52403.25;5398481;26;19962;-68
2024/04/12 01:38:16;;;;;;;;;;;;;;;-144.99;100.00;52448.09;5405929;26;19987;-67
2024/04/12 01:40:46;;;;;;;;;;;;;;;-144.99;100.00;52407.31;5400542;26;19959;-67
2024/04/12 01:43:18;;;;;;;;;;;;;;;-144.99;100.00;52386.94;5387643;26;20375;-67
2024/04/12 01:45:44;;;;;;;;;;;;;;;-144.99;100.00;52374.72;5392371;26;19959;-67
2024/04/12 01:48:13;;;;;;;;;;;;;;;-144.99;100.00;52427.72;5406286;26;19961;-66
2024/04/12 01:50:40;;;;;;;;;;;;;;;-144.99;100.00;52397.13;5388634;26;19982;-67
2024/04/12 01:53:11;;;;;;;;;;;;;;;-144.99;100.00;52407.31;5392553;26;20305;-67
2024/04/12 01:55:39;;;;;;;;;;;;;;;-144.99;100.00;52431.78;5406892;26;20250;-67
2024/04/12 01:58:11;;;;;;;;;;;;;;;-144.99;100.00;52378.78;5404812;26;19929;-68
2024/04/12 02:00:36;;;;;;;;;;;;;;;-144.99;100.00;52415.47;5405074;26;19984;-67
2024/04/12 02:03:08;;;;;;;;;;;;;;;-144.99;100.00;52423.63;5404418;26;19965;-67
2024/04/12 02:05:33;;;;;;;;;;;;;;;-144.99;100.00;52415.47;5412657;26;19963;-67
2024/04/12 02:08:07;;;;;;;;;;;;;;;-144.99;100.00;52435.88;5406315;26;20023;-66
2024/04/12 02:10:34;;;;;;;;;;;;;;;-144.99;100.00;52407.31;5407434;26;20358;-66
2024/04/12 02:13:03;;;;;;;;;;;;;;;-144.99;100.00;52472.56;5393175;26;20054;-64
2024/04/12 02:15:32;;;;;;;;;;;;;;;-144.99;100.00;52395.09;5401320;26;19995;-64
2024/04/12 02:18:02;;;;;;;;;;;;;;;-144.99;100.00;52435.88;5407095;26;19997;-63
2024/04/12 02:20:33;;;;;;;;;;;;;;;-144.99;100.00;52399.19;5402870;26;20378;-64
2024/04/12 02:23:04;;;;;;;;;;;;;;;-144.99;100.00;52393.06;5392301;26;20450;-64
2024/04/12 02:25:32;;;;;;;;;;;;;;;-144.99;100.00;52452.16;5404737;26;20284;-64
2024/04/12 02:28:06;;;;;;;;;;;;;;;-144.99;100.00;52403.25;5405930;26;20271;-64
2024/04/12 02:30:41;;;;;;;;;;;;;;;-144.99;100.00;52399.19;5399968;26;19982;-65
2024/04/12 02:33:09;;;;;;;;;;;;;;;-144.99;100.00;52427.72;5400521;26;19999;-64
2024/04/12 02:35:41;;;;;;;;;;;;;;;-144.99;100.00;52395.09;5408166;26;19971;-64
2024/04/12 02:38:09;;;;;;;;;;;;;;;-144.99;100.00;52423.63;5408946;26;19961;-65
2024/04/12 02:40:38;;;;;;;;;;;;;;;-144.99;100.00;52429.75;5406552;26;20032;-66
2024/04/12 02:43:07;;;;;;;;;;;;;;;-144.99;100.00;52391.03;5402110;26;19960;-66
2024/04/12 02:45:36;;;;;;;;;;;;;;;-144.99;100.00;52391.03;5404873;26;19961;-66
2024/04/12 02:48:06;;;;;;;;;;;;;;;-144.99;100.00;52425.66;5395908;26;20112;-66
2024/04/12 02:50:32;;;;;;;;;;;;;;;-144.99;100.00;52407.31;5400995;26;20000;-65
2024/04/12 02:53:03;;;;;;;;;;;;;;;-144.99;100.00;52403.25;5399064;26;19975;-65
2024/04/12 02:55:30;;;;;;;;;;;;;;;-144.99;100.00;52456.25;5404995;26;20270;-64
2024/04/12 02:57:59;;;;;;;;;;;;;;;-144.99;100.00;52397.13;5397695;26;19998;-65
2024/04/12 03:00:26;;;;;;;;;;;;;;;-144.99;100.00;52409.38;5407939;26;19967;-64
2024/04/12 03:02:59;;;;;;;;;;;;;;;-144.99;100.00;52411.41;5402108;26;20010;-72
2024/04/12 03:05:25;;;;;;;;;;;;;;;-144.99;100.00;52407.31;5410777;26;19989;-71
2024/04/12 03:07:55;;;;;;;;;;;;;;;-144.99;100.00;52435.88;5403776;26;19929;-72
2024/04/12 03:10:24;;;;;;;;;;;;;;;-144.99;100.00;52386.94;5404771;26;19986;-72
2024/04/12 03:12:53;;;;;;;;;;;;;;;-144.99;100.00;52388.97;5407026;26;19992;-71
2024/04/12 03:15:19;;;;;;;;;;;;;;;-144.99;100.00;52423.63;5410602;26;19993;-72
2024/04/12 03:17:49;;;;;;;;;;;;;;;-144.99;100.00;52380.84;5403727;26;20780;-73
2024/04/12 03:20:18;;;;;;;;;;;;;;;-144.99;100.00;52444.03;5398630;26;19963;-72
2024/04/12 03:22:47;;;;;;;;;;;;;;;-144.99;100.00;52415.47;5406440;26;19986;-72
2024/04/12 03:25:15;;;;;;;;;;;;;;;-144.99;100.00;52399.19;5396215;26;19986;-72
2024/04/12 03:27:44;;;;;;;;;;;;;;;-144.99;100.00;52391.03;5410235;26;20000;-72
2024/04/12 03:30:14;;;;;;;;;;;;;;;-144.99;100.00;52415.47;5403256;26;19965;-63
2024/04/12 03:32:44;;;;;;;;;;;;;;;-144.99;100.00;52403.25;5407951;26;20081;-63
2024/04/12 03:35:10;;;;;;;;;;;;;;;-144.99;100.00;52395.09;5398935;26;19967;-70
2024/04/12 03:37:47;;;;;;;;;;;;;;;-144.99;100.00;52407.31;5400978;26;20347;-69
2024/04/12 03:40:16;;;;;;;;;;;;;;;-144.99;100.00;52444.03;5403682;26;19929;-64
2024/04/12 03:42:45;;;;;;;;;;;;;;;-144.99;100.00;52411.41;5404873;26;20061;-65
2024/04/12 03:45:12;;;;;;;;;;;;;;;-144.99;100.00;52439.94;5407231;26;19949;-65
2024/04/12 03:47:44;;;;;;;;;;;;;;;-144.99;100.00;52452.16;5407393;26;20313;-72
2024/04/12 03:50:13;;;;;;;;;;;;;;;-144.99;100.00;52378.78;5402458;26;19959;-73
2024/04/12 03:52:45;;;;;;;;;;;;;;;-144.99;100.00;52427.72;5402259;26;19960;-69
2024/04/12 03:55:11;;;;;;;;;;;;;;;-144.99;100.00;52441.97;5400283;26;20413;-69
2024/04/12 03:57:44;;;;;;;;;;;;;;;-144.99;100.00;52431.78;5400241;26;20016;-67
2024/04/12 04:00:13;;;;;;;;;;;;;;;-144.99;100.00;52452.16;5410682;26;19982;-63
2024/04/12 04:02:48;;;;;;;;;;;;;;;-144.99;100.00;52403.25;5397254;26;19963;-74
2024/04/12 04:05:16;;;;;;;;;;;;;;;-144.99;100.00;52435.88;5399414;26;20375;-72
2024/04/12 04:07:45;;;;;;;;;;;;;;;-144.99;100.00;52441.97;5404477;26;19937;-72
2024/04/12 04:10:15;;;;;;;;;;;;;;;-144.99;100.00;52448.09;5408716;26;19963;-73
2024/04/12 04:12:45;;;;;;;;;;;;;;;-144.99;100.00;52444.03;5410356;26;20080;-73
2024/04/12 04:15:14;;;;;;;;;;;;;;;-144.99;100.00;52407.31;5409715;26;19992;-68
2024/04/12 04:17:40;;;;;;;;;;;;;;;-144.99;100.00;52415.47;5397831;26;19998;-71
2024/04/12 04:20:10;;;;;;;;;;;;;;;-144.99;100.00;52395.09;5404857;26;19968;-65
2024/04/12 04:22:42;;;;;;;;;;;;;;;-144.99;100.00;52435.88;5409996;26;19966;-67
2024/04/12 04:25:13;;;;;;;;;;;;;;;-144.99;100.00;52403.25;5384862;26;19968;-67
2024/04/12 04:27:39;;;;;;;;;;;;;;;-144.99;100.00;52431.78;5394951;26;19964;-67
2024/04/12 04:30:11;;;;;;;;;;;;;;;-144.99;100.00;52431.78;5393028;26;20060;-67
2024/04/12 04:32:37;;;;;;;;;;;;;;;-144.99;100.00;52417.53;5402775;26;20018;-68
2024/04/12 04:35:08;;;;;;;;;;;;;;;-144.99;100.00;52456.25;5404705;26;19989;-70
2024/04/12 04:37:37;;;;;;;;;;;;;;;-144.99;100.00;52439.94;5397276;26;19967;-70
2024/04/12 04:40:09;;;;;;;;;;;;;;;-144.99;100.00;52386.94;5403737;26;19928;-66
2024/04/12 04:42:38;;;;;;;;;;;;;;;-144.99;100.00;52399.19;5403821;26;19940;-65
2024/04/12 04:45:08;;;;;;;;;;;;;;;-144.99;100.00;52403.25;5390206;26;20049;-65
2024/04/12 04:47:34;;;;;;;;;;;;;;;-144.99;100.00;52378.78;5401691;26;19982;-65
2024/04/12 04:50:04;;;;;;;;;;;;;;;-144.99;100.00;52417.53;5406043;26;19964;-65
2024/04/12 04:52:36;;;;;;;;;;;;;;;-144.99;100.00;52407.31;5412718;26;20261;-65
2024/04/12 04:55:07;;;;;;;;;;;;;;;-144.99;100.00;52415.47;5407363;26;19933;-65
2024/04/12 04:57:35;;;;;;;;;;;;;;;-144.99;100.00;52464.41;5409797;26;19964;-65
2024/04/12 05:00:08;;;;;;;;;;;;;;;-144.99;100.00;52415.47;5398547;26;20069;-65
2024/04/12 05:02:34;;;;;;;;;;;;;;;-144.99;100.00;52464.41;5403080;26;19936;-66
2024/04/12 05:05:05;;;;;;;;;;;;;;;-144.99;100.00;52431.78;5409038;26;19936;-67
2024/04/12 05:07:34;;;;;;;;;;;;;;;-144.99;100.00;52417.53;5410046;26;20493;-66
2024/04/12 05:10:09;;;;;;;;;;;;;;;-144.99;100.00;52452.16;5402412;26;19959;-67
2024/04/12 05:12:35;;;;;;;;;;;;;;;-144.99;100.00;52417.53;5398825;26;19978;-63
2024/04/12 05:15:10;;;;;;;;;;;;;;;-144.99;100.00;52397.13;5402607;26;20003;-68
2024/04/12 05:17:37;;;;;;;;;;;;;;;-144.99;100.00;52427.72;5406712;26;20008;-65
2024/04/12 05:20:14;;;;;;;;;;;;;;;-144.99;100.00;52407.31;5394918;26;19996;-66
2024/04/12 05:22:41;;;;;;;;;;;;;;;-144.99;100.00;52452.16;5409836;26;20002;-65
2024/04/12 05:25:13;;;;;;;;;;;;;;;-144.99;100.00;52452.16;5405952;26;19960;-66
2024/04/12 05:27:40;;;;;;;;;;;;;;;-144.99;100.00;52466.44;5406388;26;20433;-65
2024/04/12 05:30:13;;;;;;;;;;;;;;;-144.99;100.00;52431.78;5405828;26;19967;-66
2024/04/12 05:32:44;;;;;;;;;;;;;;;-144.99;100.00;52444.03;5403230;26;20432;-66
2024/04/12 05:35:15;;;;;;;;;;;;;;;-144.99;100.00;52419.56;4644879;26;10000705;-66
2024/04/12 05:37:43;;;;;;;;;;;;;;;-144.99;100.00;52407.31;5404711;26;19963;-66
2024/04/12 05:40:13;;;;;;;;;;;;;;;-144.99;100.00;52399.19;5404539;26;19986;-67
2024/04/12 05:42:41;;;;;;;;;;;;;;;-144.99;100.00;52456.25;5400451;26;20445;-66
2024/04/12 05:45:19;;;;;;;;;;;;;;;-144.99;100.00;52444.03;5401096;26;20319;-66
2024/04/12 05:47:45;;;;;;;;;;;;;;;-144.99;100.00;52411.41;5403818;26;20088;-66
2024/04/12 05:50:13;;;;;;;;;;;;;;;-144.99;100.00;52435.88;5404269;26;20485;-66
2024/04/12 05:52:39;;;;;;;;;;;;;;;-144.99;100.00;52415.47;5397459;26;19991;-66
2024/04/12 05:55:13;;;;;;;;;;;;;;;-144.99;100.00;52431.78;5391067;26;19971;-66
2024/04/12 05:57:40;;;;;;;;;;;;;;;-144.99;100.00;52411.41;5402335;26;19960;-66
2024/04/12 06:00:12;;;;;;;;;;;;;;;-144.99;100.00;52415.47;5398629;26;19957;-66
2024/04/12 06:02:43;;;;;;;;;;;;;;;-144.99;100.00;52437.91;5395038;26;19959;-67
2024/04/12 06:05:18;;;;;;;;;;;;;;;-144.99;100.00;52419.56;5403649;26;19967;-67
2024/04/12 06:07:47;;;;;;;;;;;;;;;-144.99;100.00;52401.22;5392881;26;19959;-67
2024/04/12 06:10:17;;;;;;;;;;;;;;;-144.99;100.00;52441.97;5403438;26;19929;-67
2024/04/12 06:12:45;;;;;;;;;;;;;;;-144.99;100.00;52464.41;5398362;26;19988;-67
2024/04/12 06:15:17;;;;;;;;;;;;;;;-144.99;100.00;52431.78;5407182;26;20267;-67
2024/04/12 06:17:43;;;;;;;;;;;;;;;-144.99;100.00;52425.66;5401965;26;20537;-67
2024/04/12 06:20:12;;;;;;;;;;;;;;;-144.99;100.00;52395.09;5406176;26;20265;-66
2024/04/12 06:22:37;;;;;;;;;;;;;;;-144.99;100.00;52407.31;5406403;26;19982;-66
2024/04/12 06:25:08;;;;;;;;;;;;;;;-144.99;100.00;52431.78;5405278;26;19967;-68
2024/04/12 06:27:34;;;;;;;;;;;;;;;-144.99;100.00;52468.47;5405265;26;20051;-67
2024/04/12 06:30:05;;;;;;;;;;;;;;;-144.99;100.00;52415.47;5404289;26;19998;-67
2024/04/12 06:32:34;;;;;;;;;;;;;;;-144.99;100.00;52419.56;5406929;26;19959;-66
2024/04/12 06:35:03;;;;;;;;;;;;;;;-144.99;100.00;52415.47;5406104;26;19991;-66
2024/04/12 06:37:31;;;;;;;;;;;;;;;-144.99;100.00;52415.47;5406969;26;19982;-67
2024/04/12 06:40:03;;;;;;;;;;;;;;;-144.99;100.00;52419.56;5402516;26;20053;-66
2024/04/12 06:42:30;;;;;;;;;;;;;;;-144.99;100.00;52415.47;5406272;26;20048;-67
2024/04/12 06:45:01;;;;;;;;;;;;;;;-144.99;100.00;52448.09;5414072;26;19933;-66
2024/04/12 06:47:27;;;;;;;;;;;;;;;-144.99;100.00;52395.09;5412319;26;20278;-67
2024/04/12 06:50:08;;;;;;;;;;;;;;;-144.99;100.00;52413.44;5404321;26;20032;-67
2024/04/12 06:52:34;;;;;;;;;;;;;;;-144.99;100.00;52403.25;5406484;26;20042;-67
2024/04/12 06:55:03;;;;;;;;;;;;;;;-144.99;100.00;52415.47;5407466;26;20086;-67
2024/04/12 06:57:31;;;;;;;;;;;;;;;-144.99;100.00;52419.56;5408163;26;20450;-67
2024/04/12 07:00:07;;;;;;;;;;;;;;;-144.99;100.00;52395.09;5405303;26;20536;-67
2024/04/12 07:02:32;;;;;;;;;;;;;;;-144.99;100.00;52444.03;5399029;26;20498;-67
2024/04/12 07:05:05;;;;;;;;;;;;;;;-144.99;100.00;52413.44;5405619;26;19975;-67
2024/04/12 07:07:32;;;;;;;;;;;;;;;-144.99;100.00;52415.47;5407660;26;20101;-67
2024/04/12 07:10:09;;;;;;;;;;;;;;;-144.99;100.00;52439.94;5406586;26;20039;-67
2024/04/12 07:12:37;;;;;;;;;;;;;;;-144.99;100.00;52407.31;5401694;26;19976;-67
2024/04/12 07:15:09;;;;;;;;;;;;;;;-144.99;100.00;52372.69;5398817;26;20407;-64
2024/04/12 07:17:39;;;;;;;;;;;;;;;-144.99;100.00;52444.03;5407913;26;20527;-67
2024/04/12 07:20:14;;;;;;;;;;;;;;;-144.99;100.00;52411.41;5404164;26;19961;-67
2024/04/12 07:22:40;;;;;;;;;;;;;;;-144.99;100.00;52380.84;5401440;26;20030;-67
2024/04/12 07:25:10;;;;;;;;;;;;;;;-144.99;100.00;52415.47;5405312;26;19983;-67
2024/04/12 07:27:41;;;;;;;;;;;;;;;-144.99;100.00;52419.56;5407786;26;19933;-67
2024/04/12 07:30:10;;;;;;;;;;;;;;;-144.99;100.00;52395.09;5407172;26;19993;-67
2024/04/12 07:32:36;;;;;;;;;;;;;;;-144.99;100.00;52431.78;5404843;26;20427;-67
2024/04/12 07:35:22;;;;;;;;;;;;;;;-144.99;100.00;52370.63;5404229;26;19978;-67
2024/04/12 07:37:54;;;;;;;;;;;;;;;-144.99;100.00;52395.09;5407194;26;19960;-67
2024/04/12 07:40:24;;;;;;;;;;;;;;;-144.99;100.00;52391.03;5409440;26;19989;-66
2024/04/12 07:42:52;;;;;;;;;;;;;;;-144.99;100.00;52407.31;5407149;26;19959;-66
2024/04/12 07:45:23;;;;;;;;;;;;;;;-144.99;100.00;52464.41;5404378;26;20558;-66
2024/04/12 07:47:52;;;;;;;;;;;;;;;-144.99;100.00;52435.88;5406596;26;19997;-66
2024/04/12 07:50:22;;;;;;;;;;;;;;;-144.99;100.00;52407.31;5407041;26;19960;-66
2024/04/12 07:52:51;;;;;;;;;;;;;;;-144.99;100.00;52407.31;5403553;26;19960;-66
2024/04/12 07:55:24;;;;;;;;;;;;;;;-144.99;100.00;52403.25;5400327;26;19990;-67
2024/04/12 07:57:52;;;;;;;;;;;;;;;-144.99;100.00;52403.25;5406719;26;20024;-71
2024/04/12 08:00:35;;;;;;;;;;;;;;;-144.99;100.00;52395.09;5406673;26;20048;-67
2024/04/12 08:03:06;;;;;;;;;;;;;;;-144.99;100.00;52417.53;5406949;26;19968;-66
2024/04/12 08:05:42;;;;;;;;;;;;;;;-144.99;100.00;52399.19;5400445;26;19929;-66
2024/04/12 08:08:14;;;;;;;;;;;;;;;-144.99;100.00;52403.25;5395468;26;20016;-67
2024/04/12 08:10:43;;;;;;;;;;;;;;;-144.99;100.00;52407.31;5407231;26;20293;-66
2024/04/12 08:13:10;;;;;;;;;;;;;;;-144.99;100.00;52391.03;5406536;26;20485;-67
2024/04/12 08:15:40;;;;;;;;;;;;;;;-144.99;100.00;52427.72;5400042;26;19936;-67
2024/04/12 08:18:06;;;;;;;;;;;;;;;-144.99;100.00;52458.28;5399870;26;20014;-66
2024/04/12 08:20:39;;;;;;;;;;;;;;;-144.99;100.00;52415.47;5405981;26;19990;-67
2024/04/12 08:23:05;;;;;;;;;;;;;;;-144.99;100.00;52407.31;5396473;26;20022;-67
2024/04/12 08:25:39;;;;;;;;;;;;;;;-144.99;100.00;52476.63;5405138;26;20012;-66
2024/04/12 08:28:06;;;;;;;;;;;;;;;-144.99;100.00;52435.88;5404120;26;19961;-67
2024/04/12 08:30:51;;;;;;;;;;;;;;;-144.99;100.00;52382.88;5394358;26;20497;-67
2024/04/12 08:33:23;;;;;;;;;;;;;;;-144.99;100.00;52409.38;5404034;26;20305;-66
2024/04/12 08:35:55;;;;;;;;;;;;;;;-144.99;100.00;52431.78;5404786;26;20026;-67
2024/04/12 08:38:22;;;;;;;;;;;;;;;-144.99;100.00;52437.91;5400460;26;19971;-66
2024/04/12 08:40:56;;;;;;;;;;;;;;;-144.99;100.00;52407.31;5405868;26;20298;-67
2024/04/12 08:43:41;;;;;;;;;;;;;;;-144.99;100.00;52407.31;5406797;26;19929;-67
2024/04/12 08:46:16;;;;;;;;;;;;;;;-144.99;100.00;52399.19;5406668;26;19935;-68
2024/04/12 08:48:46;;;;;;;;;;;;;;;-144.99;100.00;52427.72;5403521;26;19994;-66
2024/04/12 08:51:13;;;;;;;;;;;;;;;-144.99;100.00;52382.88;5403819;26;20294;-67
2024/04/12 08:53:44;;;;;;;;;;;;;;;-144.99;100.00;52437.91;5406058;26;20418;-67
2024/04/12 08:56:17;;;;;;;;;;;;;;;-144.99;100.00;52415.47;5394077;26;19936;-67
2024/04/12 08:58:52;;;;;;;;;;;;;;;-144.99;100.00;52393.06;5404808;26;20009;-67
2024/04/12 09:01:19;;;;;;;;;;;;;;;-144.99;100.00;52403.25;5404344;26;19929;-68
2024/04/12 09:03:51;;;;;;;;;;;;;;;-144.99;100.00;52415.47;5405448;26;19933;-67
2024/04/12 09:06:23;;;;;;;;;;;;;;;-144.99;100.00;52409.38;5406201;26;20518;-68
2024/04/12 09:08:53;;;;;;;;;;;;;;;-144.99;100.00;52399.19;5406782;26;19963;-68
2024/04/12 09:11:25;;;;;;;;;;;;;;;-144.99;100.00;52456.25;5401370;26;20025;-67
2024/04/12 09:13:54;;;;;;;;;;;;;;;-144.99;100.00;52431.78;5405640;26;19944;-67
2024/04/12 09:16:20;;;;;;;;;;;;;;;-144.99;100.00;52427.72;5406335;26;20045;-67
2024/04/12 09:18:51;;;;;;;;;;;;;;;-144.99;100.00;52407.31;5405627;26;20406;-68
2024/04/12 09:21:24;;;;;;;;;;;;;;;-144.99;100.00;52448.09;5402114;26;19997;-66
2024/04/12 09:23:56;;;;;;;;;;;;;;;-144.99;100.00;52399.19;5403751;26;20015;-67
2024/04/12 09:26:25;;;;;;;;;;;;;;;-144.99;100.00;52444.03;5406048;26;20425;-68
2024/04/12 09:29:01;;;;;;;;;;;;;;;-144.99;100.00;52446.06;5406159;26;19937;-68
2024/04/12 09:34:35;;;;;;;;;;;;;;;-144.99;100.00;52427.72;5407874;26;19998;-68
2024/04/12 09:37:28;;;;;;;;;;;;;;;-144.99;100.00;52456.25;5405772;26;19929;-67
2024/04/12 09:40:04;;;;;;;;;;;;;;;-144.99;100.00;52437.91;5405677;26;20267;-68
2024/04/12 09:42:44;;;;;;;;;;;;;;;-144.99;100.00;52415.47;5402709;26;19951;-67
2024/04/12 09:45:16;;;;;;;;;;;;;;;-144.99;100.00;52403.25;5404323;26;19936;-67
2024/04/12 10:37:39;;;;;;;;;;;;;;;-144.99;100.00;52423.63;5366575;26;19929;-67
2024/04/12 10:40:09;;;;;;;;;;;;;;;-144.99;100.00;52391.03;5399859;26;20002;-66
2024/04/12 10:42:38;;;;;;;;;;;;;;;-144.99;100.00;52444.03;5402581;26;19928;-66
2024/04/12 10:45:08;;;;;;;;;;;;;;;-144.99;100.00;52382.88;5407317;26;19963;-66
2024/04/12 10:47:39;;;;;;;;;;;;;;;-144.99;100.00;52427.72;5407473;26;20457;-67
2024/04/12 10:50:10;;;;;;;;;;;;;;;-144.99;100.00;52456.25;5394706;26;19967;-66
2024/04/12 10:52:36;;;;;;;;;;;;;;;-144.99;100.00;52417.53;5400308;26;20069;-66
2024/04/12 10:55:08;;;;;;;;;;;;;;;-144.99;100.00;52452.16;5407192;26;19961;-66
2024/04/12 10:57:38;;;;;;;;;;;;;;;-144.99;100.00;52439.94;5407561;26;20043;-66
2024/04/12 11:00:07;;;;;;;;;;;;;;;-144.99;100.00;52395.09;5397494;26;19960;-66
2024/04/12 11:02:33;;;;;;;;;;;;;;;-144.99;100.00;52407.31;5397792;26;19961;-66
2024/04/12 11:05:24;;;;;;;;;;;;;;;-144.99;100.00;52421.59;5406026;26;20346;-66
2024/04/12 11:07:51;;;;;;;;;;;;;;;-144.99;100.00;52423.63;5406645;26;19993;-66
2024/04/12 11:10:25;;;;;;;;;;;;;;;-144.99;100.00;52435.88;5407329;26;19987;-66
2024/04/12 11:12:59;;;;;;;;;;;;;;;-144.99;100.00;52391.03;5398592;26;19970;-66
2024/04/12 11:31:58;;;;;;;;;;;;;;;-144.99;100.00;52399.19;5410170;26;19945;-66
2024/04/12 11:34:30;;;;;;;;;;;;;;;-144.99;100.00;52366.56;5402549;26;20102;-66
2024/04/12 11:37:05;;;;;;;;;;;;;;;-144.99;100.00;52382.88;5405138;26;19937;-66
2024/04/12 11:39:35;;;;;;;;;;;;;;;-144.99;99.64;52397.13;5407327;26;19936;-66
2024/04/12 11:42:01;;;;;;;;;;;;;;;-144.99;98.83;52391.03;5402010;26;19984;-66
2024/04/12 11:44:30;;;;;;;;;;;;;;;-144.99;98.94;52411.41;5404132;26;19929;-67
2024/04/12 11:47:02;;;;;;;;;;;;;;;-144.99;99.53;52395.09;5406884;26;20468;-66
2024/04/12 11:49:41;;;;;;;;;;;;;;;-144.99;98.64;52391.03;5402987;26;19937;-66
2024/04/12 11:52:15;;;;;;;;;;;;;;;-144.99;97.59;52378.78;5402808;26;19936;-66
2024/04/12 11:54:46;;;;;;;;;;;;;;;-144.99;97.23;52360.44;5405730;26;19980;-66
2024/04/12 11:57:12;;;;;;;;;;;;;;;-144.99;96.82;52386.94;5406756;26;20312;-66
2024/04/12 11:59:43;;;;;;;;;;;;;;;-144.99;96.06;52374.72;5402567;26;19929;-66
2024/04/12 12:02:14;;;;;;;;;;;;;;;-144.99;96.41;52399.19;5403779;26;19997;-66
2024/04/12 12:04:42;;;;;;;;;;;;;;;-144.99;96.77;52391.03;5405933;26;19928;-66
2024/04/12 12:07:11;;;;;;;;;;;;;;;-144.99;97.13;52423.63;5407157;26;19998;-66
2024/04/12 12:09:40;;;;;;;;;;;;;;;-144.99;96.47;52352.28;5404797;26;19942;-66
2024/04/12 12:12:10;;;;;;;;;;;;;;;-144.99;95.87;52366.56;5394565;26;19929;-66
2024/04/12 12:14:41;;;;;;;;;;;;;;;-144.99;94.83;52378.78;5406773;26;19929;-66
2024/04/12 12:17:07;;;;;;;;;;;;;;;-144.99;94.51;52382.88;5406318;26;19937;-66
2024/04/12 12:19:35;;;;;;;;;;;;;;;-144.99;94.36;52370.63;5406901;26;19998;-66
2024/04/12 12:22:02;;;;;;;;;;;;;;;-144.99;94.03;52370.63;5402486;26;19936;-66
2024/04/12 12:24:37;;;;;;;;;;;;;;;-144.99;93.61;52338.03;5403725;26;19930;-66
2024/04/12 12:27:03;;;;;;;;;;;;;;;-144.99;93.52;52374.72;5403785;26;20122;-66
2024/04/12 12:29:35;;;;;;;;;;;;;;;-144.99;93.13;52395.09;5402148;26;19930;-66
2024/04/12 12:32:01;;;;;;;;;;;;;;;-144.99;92.16;52382.88;5405397;26;20493;-66
2024/04/12 12:34:33;;;;;;;;;;;;;;;-144.99;91.21;52366.56;5405552;26;19937;-66
2024/04/12 12:36:59;;;;;;;;;;;;;;;-144.99;88.41;52370.63;5402930;26;19937;-67
2024/04/12 12:39:31;;;;;;;;;;;;;;;-144.99;87.42;52299.31;5401981;26;19939;-66
2024/04/12 12:42:01;;;;;;;;;;;;;;;-144.99;85.02;52323.75;5401421;26;19972;-67
2024/04/12 12:44:29;;;;;;;;;;;;;;;-144.99;83.98;52346.19;5405872;26;20461;-66
2024/04/12 12:46:55;;;;;;;;;;;;;;;-144.99;82.65;52313.56;5405942;26;19936;-67
2024/04/12 12:49:25;;;;;;;;;;;;;;;-144.99;81.52;52319.69;5401489;26;19973;-67
2024/04/12 12:51:51;;;;;;;;;;;;;;;-144.99;80.46;52325.81;5405476;26;19933;-68
2024/04/12 12:54:20;;;;;;;;;;;;;;;-144.99;81.15;52329.88;5405226;26;20264;-67
2024/04/12 12:56:46;;;;;;;;;;;;;;;-144.99;80.17;52305.41;5391767;26;19960;-67
2024/04/12 12:59:18;;;;;;;;;;;;;;;-144.99;78.57;52358.41;5405482;26;19989;-67
2024/04/12 13:01:46;;;;;;;;;;;;;;;-144.99;78.29;52358.41;5399481;26;20277;-67
2024/04/12 13:04:15;;;;;;;;;;;;;;;-144.99;77.88;52215.75;5404599;26;19944;-66
2024/04/12 13:06:43;;;;;;;;;;;;;;;-144.99;75.05;52346.19;5405725;26;20331;-67
2024/04/12 13:09:17;;;;;;;;;;;;;;;-144.99;74.29;52313.56;5405566;26;19941;-67
2024/04/12 13:11:43;;;;;;;;;;;;;;;-144.99;72.84;52362.50;5399584;26;20443;-67
2024/04/12 13:14:11;;;;;;;;;;;;;;;-144.99;73.24;52313.56;5404221;26;19929;-68
2024/04/12 13:16:41;;;;;;;;;;;;;;;-144.99;73.45;52297.25;5401910;26;19929;-67
2024/04/12 13:19:15;;;;;;;;;;;;;;;-144.99;72.95;52366.56;5405308;26;20289;-67
2024/04/12 13:21:41;;;;;;;;;;;;;;;-144.99;72.86;52268.72;5401209;26;19994;-67
2024/04/12 13:24:13;;;;;;;;;;;;;;;-144.99;72.29;52350.25;5402993;26;20321;-67
2024/04/12 13:26:43;;;;;;;;;;;;;;;-144.99;72.40;52325.81;5404923;26;19929;-67
2024/04/12 13:29:12;;;;;;;;;;;;;;;-144.99;70.19;52362.50;5405699;26;20341;-67
2024/04/12 13:31:41;;;;;;;;;;;;;;;-144.99;69.87;52301.34;5402031;26;19928;-67
2024/04/12 13:34:10;;;;;;;;;;;;;;;-144.99;69.00;52254.47;5399537;26;19928;-67
2024/04/12 13:36:36;;;;;;;;;;;;;;;-144.99;67.38;52289.13;5405386;26;19933;-67
2024/04/12 13:39:12;;;;;;;;;;;;;;;-144.99;66.83;52362.50;5405411;26;20371;-68
2024/04/12 13:41:40;;;;;;;;;;;;;;;-144.99;66.99;52382.88;5405489;26;19933;-67
2024/04/12 13:44:24;;;;;;;;;;;;;;;-144.99;67.48;52358.41;5400622;26;20370;-67